Historyczne dane pomiarowe

Dodano dane terminowe – wersja testowa.

Dane z okresu 1951-2019

Wersja bazy: 1.34 [2019-03-16, lista zmian], aktualizacja planowana na 2019-04-15

Dane meteo z obszaru Polski uzyskane na podstawie danych udostępnionych przez Instytut Meteorologii i Gospodarki Wodnej – Państwowy Instytut Badawczy.

 

Wybierz Datę:    

       

TemperaturaWilgotnośćWiatrCiśnienieOpadyŚniegCzas trwania zjawisk
 Stacja t tx tn tng RH VA  wxwx mslp ppp RRR   cm mm wxwxwxwxwxwxwx
1987-08-14 12.3 16.8 6.5 4.1 81.3- 5.7 0.7---- 1.0------------
1987-08-13 11.1 16.1 7.5 4.1 80.5- 6.0 1.3---- 0.2------------
1987-08-12 9.4 14.0 5.0 1.1 79.3- 6.7 2.7---- 8.4------------
1987-08-11 9.7 14.0 7.6 5.1 79.8- 5.3 3.7---- 0.0------------
1987-08-10 11.1 14.0 10.0 7.1 87.3- 8.0 2.7---- 2.2------------
1987-08-09 13.9 20.1 6.3 4.6 77.8- 5.3 0.7---- 8.7------------
1987-08-08 11.3 17.0 6.8 2.6 78.8- 6.3 2.7---- 1.3------------
1987-08-07 6.8 11.6 2.0 -0.9 88.5- 7.3 1.3---- 2.8------------
1987-08-06 6.6 10.0 5.0 4.1 87.3- 8.0 1.3---- 5.5------------
1987-08-05 9.4 13.0 5.0 1.1 79.3- 7.3 3.3---- 0.6------------
1987-08-04 12.0 14.6 10.0 6.6 75.5- 7.0 3.3---- 0.3------------
1987-08-03 12.7 17.0 9.8 7.1 80.3- 7.3 2.0---- 19.8------------
1987-08-02 11.3 14.0 8.8 6.1 82.0- 7.0 3.3---- 3.9------------
1987-08-01 12.9 14.8 11.0 9.1 86.5- 6.3 6.7---- 14.8------------
1987-07-31 13.1 16.1 12.0 7.5 84.0- 8.0 5.0---- 0.0------------
1987-07-30 15.0 22.0 7.0 4.1 74.3- 5.3 6.0---- 3.0------------
1987-07-29 11.3 13.8 9.2 6.0 84.0- 7.0 2.0---- 0.0------------
1987-07-28 10.3 11.0 9.2 6.1 83.0- 8.0 4.0---- 0.5------------
1987-07-27 9.3 12.0 6.3 5.1 83.0- 8.0 6.7---- 8.4------------
1987-07-26 11.0 15.1 8.4 6.1 77.5- 8.0 2.0---- 2.5------------
1987-07-25 15.7 19.8 13.6 10.1 77.5- 6.3 0.7---- 0.0------------
1987-07-24 16.7 21.8 13.0 10.1 79.3- 3.7 2.0---- 3.5------------
1987-07-23 16.5 23.4 10.0 7.1 75.3- 5.7 2.0---- 0.0------------
1987-07-22 16.3 22.6 11.0 9.1 68.0- 4.3 2.7---- 0.0------------
1987-07-21 13.5 16.5 8.1 6.1 86.0- 8.0 1.3---- 0.0------------
1987-07-20 15.2 19.8 13.6 7.1 80.5- 5.0 2.7---- 0.0------------
1987-07-19 17.0 20.1 14.0 12.1 82.0- 7.7 2.7---- 28.0------------
1987-07-18 19.1 23.4 13.0 10.1 80.3- 6.7 2.0---- 0.2------------
1987-07-17 20.8 26.8 15.0 12.1 72.5- 4.0 3.7---- 0.4------------
1987-07-16 18.8 25.0 12.0 9.6 75.8- 4.7 1.3---- 0.4------------
1987-07-15 13.9 22.0 3.8 2.1 72.8- 2.3 0.7---- 0.0------------
1987-07-14 13.5 19.0 5.1 5.1 68.0- 2.7 2.0---- 0.0------------
1987-07-13 15.2 19.0 10.4 6.1 71.0- 4.7 1.3---- 0.0------------
1987-07-12 18.7 24.0 16.1 10.1 66.8- 5.3 5.3---- 5.2------------
1987-07-11 14.3 21.0 5.3 3.1 71.0- 2.7 2.7---- 0.0------------
1987-07-10 12.4 16.1 6.0 3.1 69.8- 3.7 2.7---- 0.0------------
1987-07-09 14.8 17.1 14.0 7.1 84.8- 6.3 0.7---- 9.3------------
1987-07-08 17.8 23.0 12.0 9.1 74.5- 5.0 0.0---- 6.4------------
1987-07-07 16.5 24.0 7.0 5.1 66.8- 1.0 1.3---- 0.0------------
1987-07-06 14.4 19.8 5.3 5.1 69.3- 2.0 2.0---- 0.0------------
1987-07-05 12.7 16.1 6.1 5.6 68.5- 3.0 1.3---- 0.0------------
1987-07-04 14.6 18.1 9.2 7.1 75.8- 3.3 1.3---- 0.0------------
1987-07-03 15.9 19.9 9.2 7.1 72.0- 2.7 2.7---- 0.0------------
1987-07-02 15.8 20.1 14.0 8.6 82.8- 6.7 0.7---- 0.0------------
1987-07-01 22.0 28.8 16.1 12.1 78.5- 3.0 2.7---- 24.1------------
1987-06-30 21.4 26.0 13.6 10.1 75.5- 2.7 0.7---- 0.0------------
1987-06-29 20.1 24.0 13.2 6.6 76.0- 5.0 0.7---- 0.0------------
1987-06-28 16.9 22.0 9.6 3.6 78.0- 4.7 0.7---- 0.0------------
1987-06-27 15.0 20.7 13.4 7.1 77.3- 6.3 0.0---- 2.3------------
1987-06-26 16.0 21.7 6.3 2.9 77.8- 6.7 1.3---- 59.5------------
1987-06-25 11.9 13.4 10.0 9.1 84.0- 8.0 2.0---- 0.8------------
1987-06-24 13.3 16.1 10.0 7.6 79.5- 7.0 4.3---- 9.5------------
1987-06-23 12.6 14.0 9.0 6.6 79.3- 6.3 2.7---- 0.6------------
1987-06-22 10.8 12.6 10.0 6.1 85.5- 8.0 0.0---- 5.2------------
1987-06-21 12.4 22.0 10.0 6.1 82.0- 8.0 0.7---- 2.6------------
1987-06-20 13.1 17.5 7.6 4.1 69.3- 6.0 2.7---- 0.7------------
1987-06-19 8.8 13.2 6.0 4.1 77.0- 5.7 1.3---- 0.7------------
1987-06-18 7.7 10.0 6.0 2.1 83.3- 7.3 2.0---- 15.7------------
1987-06-17 9.0 13.0 6.3 4.1 71.0- 6.3 2.7---- 1.5------------
1987-06-16 8.3 18.1 7.0 5.1 84.5- 8.0 3.7---- 3.2------------
415.8 ms

 

Źródłem pochodzenia danych jest Instytut Meteorologii i Gospodarki Wodnej – Państwowy Instytut Badawczy. Dane Instytutu Meteorologii i Gospodarki Wodnej – Państwowego Instytutu Badawczego zostały przetworzone.

Dane źródłowe można odnaleźć na stronie https://dane.imgw.pl